Grafton, Iowa
Current Conditions -  °F | °C
As of 1:53 AM on Friday 28 Nov 2014 (Local Time) from KMCW Reporting Station
Overcast Overcast  
Wind Chill: -5°   Ceiling: 9000
Heat Index: 12°   Visibility: 10mi
Dew Point:   Wind: 17mph
Humidity: 67%   Direction: 140°SE
Pressure: 30.15"   Gusts: NA
Location:  43.33°N, 93.07°W
Report Text: KMCW 280753Z AUTO 14015KT 10SM OVC090 M11/M16 A3015 RMK AO2 SLP233 T11111161
Loading
Personal Weather Stations






























Interactive Weather Map New forecast layout! Learn more

10-Day Weather Forecast

Advertisements
Track Severe Weather on mobile